Time;durP1;ratioP1;P1;durP2;ratioP2;P2;SDS_P1;SDS_P2;PMS_P1;PMS_P2;Temp;Humidity;BMP_temperature;BMP_pressure;BME280_temperature;BME280_humidity;BME280_pressure;Samples;Min_cycle;Max_cycle;Signal;HPM_P1;HPM_P2
2021/05/07 00:01:17;;;;;;;2.72;1.83;;;7.20;99.90;;;;;;5077155;28;20126;-84
2021/05/07 00:03:42;;;;;;;4.40;2.13;;;7.20;99.90;;;;;;5085806;28;20395;-84
2021/05/07 00:06:10;;;;;;;2.67;1.67;;;7.10;99.90;;;;;;5084166;28;20024;-84
2021/05/07 00:08:37;;;;;;;2.65;2.03;;;7.10;99.90;;;;;;5083819;28;20032;-85
2021/05/07 00:11:15;;;;;;;3.13;2.10;;;7.20;99.90;;;;;;5085980;28;20059;-84
2021/05/07 00:13:42;;;;;;;2.42;1.95;;;7.10;99.90;;;;;;5077243;28;20020;-85
2021/05/07 00:16:08;;;;;;;2.95;1.95;;;7.10;99.90;;;;;;5084629;28;20028;-83
2021/05/07 00:18:33;;;;;;;4.05;2.15;;;7.10;99.90;;;;;;5083824;28;20027;-84
2021/05/07 00:21:00;;;;;;;3.42;2.00;;;7.10;99.90;;;;;;5085661;28;20510;-83
2021/05/07 00:23:25;;;;;;;4.78;2.05;;;7.10;99.90;;;;;;5082766;28;21774;-83
2021/05/07 00:25:52;;;;;;;4.10;1.90;;;7.00;99.90;;;;;;5085363;28;20028;-83
2021/05/07 00:28:19;;;;;;;3.47;2.13;;;7.00;99.90;;;;;;5079206;28;20107;-83
2021/05/07 00:30:45;;;;;;;5.65;2.35;;;7.00;99.90;;;;;;5082262;28;20051;-83
2021/05/07 00:33:10;;;;;;;4.97;2.20;;;7.00;99.90;;;;;;5084468;28;20028;-83
2021/05/07 00:35:36;;;;;;;4.53;2.40;;;7.00;99.90;;;;;;5086000;28;20059;-83
2021/05/07 00:38:02;;;;;;;4.25;1.95;;;7.00;99.90;;;;;;5085022;28;20051;-83
2021/05/07 00:40:28;;;;;;;3.70;2.17;;;7.00;99.90;;;;;;5083783;28;20110;-83
2021/05/07 00:42:54;;;;;;;2.63;1.70;;;7.00;99.90;;;;;;5081350;28;20633;-83
2021/05/07 00:45:20;;;;;;;3.45;2.10;;;7.00;99.90;;;;;;5081437;28;20036;-83
2021/05/07 00:48:04;;;;;;;3.35;2.03;;;7.00;99.90;;;;;;5086401;28;20036;-83
2021/05/07 00:50:31;;;;;;;5.85;2.25;;;6.90;99.90;;;;;;5085718;28;20044;-82
2021/05/07 00:53:00;;;;;;;3.97;1.95;;;7.00;99.90;;;;;;5084236;28;20044;-82
2021/05/07 00:55:27;;;;;;;3.88;2.17;;;7.00;99.90;;;;;;5083933;28;20024;-82
2021/05/07 00:57:53;;;;;;;6.57;2.20;;;7.00;99.90;;;;;;5081881;28;20035;-82
2021/05/07 01:00:19;;;;;;;5.65;2.00;;;7.00;99.90;;;;;;5080469;28;20455;-83
2021/05/07 01:02:45;;;;;;;4.32;2.22;;;7.00;99.90;;;;;;5078648;28;20028;-83
2021/05/07 01:05:11;;;;;;;2.58;1.67;;;7.00;99.90;;;;;;5079950;28;20023;-83
2021/05/07 01:07:37;;;;;;;3.85;2.33;;;7.00;99.90;;;;;;5080946;28;20111;-83
2021/05/07 01:10:09;;;;;;;3.45;2.03;;;7.00;99.90;;;;;;5083507;28;20394;-83
2021/05/07 01:12:36;;;;;;;2.70;1.58;;;6.90;99.90;;;;;;5084183;28;20093;-83
2021/05/07 01:15:09;;;;;;;2.80;1.95;;;6.90;99.90;;;;;;5083760;28;20604;-83
2021/05/07 01:17:40;;;;;;;2.78;1.90;;;6.90;99.90;;;;;;5083512;28;20020;-83
2021/05/07 01:20:19;;;;;;;2.45;1.73;;;6.90;99.90;;;;;;5080188;28;20043;-83
2021/05/07 01:22:47;;;;;;;3.97;2.35;;;6.90;99.90;;;;;;5081702;28;20024;-83
2021/05/07 01:25:16;;;;;;;3.97;2.00;;;6.90;99.90;;;;;;5083754;28;20028;-83
2021/05/07 01:27:44;;;;;;;2.83;1.90;;;6.90;99.90;;;;;;5078762;28;20034;-83
2021/05/07 01:30:16;;;;;;;3.42;2.05;;;6.80;99.90;;;;;;5079940;28;20031;-83
2021/05/07 01:32:42;;;;;;;4.43;2.42;;;6.80;99.90;;;;;;5084446;28;20032;-83
2021/05/07 01:35:14;;;;;;;3.60;2.05;;;6.70;99.90;;;;;;5079072;28;20075;-83
2021/05/07 01:37:42;;;;;;;4.70;1.98;;;6.70;99.90;;;;;;5081078;28;20020;-83
2021/05/07 01:40:18;;;;;;;3.85;2.05;;;6.60;99.90;;;;;;5082391;28;20038;-83
2021/05/07 01:42:46;;;;;;;3.83;2.08;;;6.60;99.90;;;;;;5079750;28;20655;-83
2021/05/07 01:45:12;;;;;;;3.55;2.17;;;6.60;99.90;;;;;;5081159;28;20132;-83
2021/05/07 01:47:37;;;;;;;2.88;1.80;;;6.60;99.90;;;;;;5083747;28;20511;-83
2021/05/07 01:50:05;;;;;;;3.17;2.30;;;6.60;99.90;;;;;;5081996;28;20708;-82
2021/05/07 01:52:31;;;;;;;3.90;2.05;;;6.60;99.90;;;;;;5081246;28;20063;-83
2021/05/07 01:54:56;;;;;;;4.10;2.45;;;6.60;99.90;;;;;;5079138;28;20016;-83
2021/05/07 01:57:28;;;;;;;4.43;2.53;;;6.60;99.90;;;;;;5083722;28;20028;-83
2021/05/07 01:59:53;;;;;;;;;;;6.70;99.90;;;;;;5084928;28;20020;-83
2021/05/07 02:02:19;;;;;;;3.15;2.22;;;6.70;99.90;;;;;;5081789;28;19930;-82
2021/05/07 02:04:44;;;;;;;3.88;2.40;;;6.70;99.90;;;;;;5084652;28;20028;-83
2021/05/07 02:07:10;;;;;;;3.20;2.08;;;6.70;99.90;;;;;;5077896;28;20178;-83
2021/05/07 02:09:35;;;;;;;3.42;2.58;;;6.70;99.90;;;;;;5078466;28;20390;-83
2021/05/07 02:12:01;;;;;;;4.85;2.35;;;6.70;99.90;;;;;;5080663;28;20124;-83
2021/05/07 02:14:26;;;;;;;4.53;2.20;;;6.70;99.90;;;;;;5082215;28;20036;-83
2021/05/07 02:16:52;;;;;;;3.20;1.92;;;6.70;99.90;;;;;;5083556;28;20023;-83
2021/05/07 02:19:17;;;;;;;4.22;1.95;;;6.70;99.90;;;;;;5081757;28;20020;-83
2021/05/07 02:21:43;;;;;;;2.45;2.05;;;6.60;99.90;;;;;;5083043;28;20116;-83
2021/05/07 02:24:11;;;;;;;4.00;2.20;;;6.60;99.90;;;;;;5082018;28;20049;-83
2021/05/07 02:26:36;;;;;;;3.78;2.10;;;6.60;99.90;;;;;;5081960;28;20039;-83
2021/05/07 02:29:02;;;;;;;3.25;2.17;;;6.50;99.90;;;;;;5082274;28;20047;-83
2021/05/07 02:31:28;;;;;;;3.70;1.92;;;6.50;99.90;;;;;;5081642;28;20909;-83
2021/05/07 02:33:54;;;;;;;5.65;2.47;;;6.40;99.90;;;;;;5079119;28;20107;-82
2021/05/07 02:36:19;;;;;;;7.68;2.00;;;6.40;99.90;;;;;;5074903;28;20098;-83
2021/05/07 02:38:44;;;;;;;3.10;2.30;;;6.40;99.90;;;;;;5079320;28;20241;-83
2021/05/07 02:41:10;;;;;;;3.80;2.05;;;6.30;99.90;;;;;;5083915;28;20115;-83
2021/05/07 02:43:35;;;;;;;3.58;2.08;;;6.30;99.90;;;;;;5081970;28;20100;-83
2021/05/07 02:46:01;;;;;;;5.15;2.40;;;6.30;99.90;;;;;;5084882;28;20119;-83
2021/05/07 02:48:26;;;;;;;3.35;2.30;;;6.20;99.90;;;;;;5079927;28;20047;-83
2021/05/07 02:50:52;;;;;;;5.18;2.08;;;6.20;99.90;;;;;;5084759;28;20060;-82
2021/05/07 02:53:17;;;;;;;4.75;2.03;;;6.20;99.90;;;;;;5081085;28;20498;-83
2021/05/07 02:55:43;;;;;;;4.50;2.40;;;6.10;99.90;;;;;;5077691;28;20023;-83
2021/05/07 02:58:08;;;;;;;4.78;2.70;;;6.20;99.90;;;;;;5076517;28;20136;-82
2021/05/07 03:00:34;;;;;;;5.82;2.40;;;6.20;99.90;;;;;;5078432;28;20028;-83
2021/05/07 03:03:00;;;;;;;3.83;2.40;;;6.20;99.90;;;;;;5078641;28;20070;-83
2021/05/07 03:05:25;;;;;;;4.32;1.85;;;6.20;99.90;;;;;;5081037;28;20059;-83
2021/05/07 03:07:51;;;;;;;2.55;2.08;;;6.20;99.90;;;;;;5031410;28;20436;-83
2021/05/07 03:10:16;;;;;;;4.35;2.33;;;6.30;99.90;;;;;;5081055;28;20027;-83
2021/05/07 03:12:41;;;;;;;3.80;2.38;;;6.30;99.90;;;;;;5081631;28;20039;-83
2021/05/07 03:15:07;;;;;;;4.88;2.40;;;6.30;99.90;;;;;;5076585;28;20505;-83
2021/05/07 03:17:33;;;;;;;6.97;2.47;;;6.30;99.90;;;;;;5078006;28;20638;-83
2021/05/07 03:19:59;;;;;;;5.32;2.47;;;6.30;99.90;;;;;;5080988;28;20039;-83
2021/05/07 03:22:24;;;;;;;6.10;3.08;;;6.30;99.90;;;;;;5083253;28;20020;-83
2021/05/07 03:24:49;;;;;;;4.80;2.55;;;6.30;99.90;;;;;;5073252;28;20082;-84
2021/05/07 03:27:15;;;;;;;4.80;2.65;;;6.30;99.90;;;;;;5079602;28;20028;-83
2021/05/07 03:29:41;;;;;;;4.70;2.65;;;6.30;99.90;;;;;;5083782;28;20024;-83
2021/05/07 03:32:06;;;;;;;9.48;2.30;;;6.40;99.90;;;;;;5078802;28;20038;-84
2021/05/07 03:34:32;;;;;;;5.60;2.70;;;6.40;99.90;;;;;;5083804;28;20036;-83
2021/05/07 03:36:58;;;;;;;5.75;2.85;;;6.40;99.90;;;;;;5079593;28;20048;-83
2021/05/07 03:39:23;;;;;;;4.32;2.63;;;6.50;99.90;;;;;;5075968;28;20781;-83
2021/05/07 03:41:49;;;;;;;8.93;2.60;;;6.50;99.90;;;;;;5077902;28;20107;-84
2021/05/07 03:44:14;;;;;;;6.72;2.85;;;6.60;99.90;;;;;;5073330;28;20024;-84
2021/05/07 03:46:40;;;;;;;5.85;2.65;;;6.50;99.90;;;;;;5079321;28;20063;-84
2021/05/07 03:49:05;;;;;;;4.55;2.65;;;6.60;99.90;;;;;;5081139;28;20028;-84
2021/05/07 03:51:31;;;;;;;5.20;2.30;;;6.60;99.90;;;;;;5082130;28;20127;-72
2021/05/07 03:53:56;;;;;;;3.88;2.40;;;6.60;99.90;;;;;;5082093;28;20016;-80
2021/05/07 03:56:22;;;;;;;7.20;3.75;;;6.70;99.90;;;;;;5080320;28;20081;-87
2021/05/07 03:58:47;;;;;;;8.38;3.72;;;6.70;99.90;;;;;;5072283;28;20020;-87
2021/05/07 04:01:13;;;;;;;5.45;2.85;;;6.70;99.90;;;;;;5072731;28;20055;-87
2021/05/07 04:03:38;;;;;;;3.75;2.53;;;6.80;99.90;;;;;;5082481;28;20680;-78
2021/05/07 04:06:06;;;;;;;5.90;2.58;;;6.80;99.90;;;;;;5078803;28;20111;-77
2021/05/07 04:08:35;;;;;;;8.05;2.85;;;6.90;99.90;;;;;;5075528;28;20066;-78
2021/05/07 04:11:06;;;;;;;6.35;2.88;;;7.00;99.90;;;;;;5071922;28;20399;-79
2021/05/07 04:16:01;;;;;;;5.30;2.95;;;7.10;99.90;;;;;;5075292;28;19914;-78
2021/05/07 04:18:26;;;;;;;7.40;3.35;;;7.20;99.90;;;;;;5071905;28;20391;-79
2021/05/07 04:20:54;;;;;;;6.50;3.08;;;7.30;99.90;;;;;;5071589;28;20081;-79
2021/05/07 04:23:20;;;;;;;5.45;2.95;;;7.50;99.90;;;;;;5068817;28;20048;-79
2021/05/07 04:25:46;;;;;;;5.20;2.88;;;7.50;99.90;;;;;;5070669;28;20056;-79
2021/05/07 04:28:11;;;;;;;4.82;2.55;;;7.60;99.90;;;;;;5074111;28;20042;-79
2021/05/07 04:30:37;;;;;;;3.17;2.33;;;7.60;99.90;;;;;;5076633;28;20024;-79
2021/05/07 04:33:03;;;;;;;3.35;2.25;;;7.60;99.90;;;;;;5076631;28;20031;-78
2021/05/07 04:35:29;;;;;;;4.90;2.72;;;7.80;99.90;;;;;;5076585;28;20430;-79
2021/05/07 04:37:54;;;;;;;3.67;2.72;;;7.80;99.90;;;;;;5074355;28;20044;-80
2021/05/07 04:40:20;;;;;;;4.93;2.00;;;7.80;99.90;;;;;;5069120;28;20063;-78
2021/05/07 04:42:46;;;;;;;5.63;2.92;;;7.80;99.90;;;;;;5073789;28;20024;-77
2021/05/07 04:45:12;;;;;;;3.75;2.20;;;7.80;99.90;;;;;;5078454;28;20513;-77
2021/05/07 04:47:37;;;;;;;3.95;2.42;;;7.80;99.90;;;;;;5084001;28;20097;-76
2021/05/07 04:50:04;;;;;;;5.10;2.72;;;7.90;99.90;;;;;;5085760;28;20032;-82
2021/05/07 04:52:30;;;;;;;5.78;2.63;;;7.90;99.90;;;;;;5080081;28;20483;-77
2021/05/07 04:54:57;;;;;;;4.53;2.00;;;8.00;99.90;;;;;;5079993;28;20084;-76
2021/05/07 04:57:23;;;;;;;6.85;2.58;;;8.00;99.90;;;;;;5085565;28;20073;-85
2021/05/07 04:59:48;;;;;;;2.42;1.90;;;8.00;99.90;;;;;;5084690;28;20420;-78
2021/05/07 05:02:14;;;;;;;6.22;2.20;;;8.00;99.90;;;;;;5082672;28;20028;-77
2021/05/07 05:04:39;;;;;;;5.90;2.03;;;8.00;99.50;;;;;;5080218;28;20085;-81
2021/05/07 05:07:07;;;;;;;3.00;1.77;;;8.00;99.00;;;;;;5079078;28;20578;-76
2021/05/07 05:09:33;;;;;;;3.53;1.83;;;8.00;98.10;;;;;;5081572;28;20044;-74
2021/05/07 05:11:59;;;;;;;4.82;2.42;;;8.00;98.80;;;;;;5082722;28;20032;-79
2021/05/07 05:14:24;;;;;;;2.95;1.95;;;8.00;97.70;;;;;;5072943;28;20073;-76
2021/05/07 05:16:50;;;;;;;3.22;1.98;;;8.00;97.60;;;;;;5077104;28;20028;-77
2021/05/07 05:19:15;;;;;;;4.80;2.08;;;7.90;97.30;;;;;;5082273;28;20063;-81
2021/05/07 05:21:41;;;;;;;7.05;1.77;;;7.80;96.50;;;;;;5076575;28;20157;-76
2021/05/07 05:24:08;;;;;;;4.22;2.00;;;7.90;96.20;;;;;;5079890;28;20023;-76
2021/05/07 05:26:33;;;;;;;1.52;1.17;;;7.80;95.80;;;;;;5087616;28;20490;-76
2021/05/07 05:28:58;;;;;;;3.53;1.55;;;7.90;95.40;;;;;;5089338;28;20102;-76
2021/05/07 05:31:24;;;;;;;2.22;1.70;;;7.90;95.90;;;;;;5089516;28;20031;-76
2021/05/07 05:33:49;;;;;;;5.40;1.77;;;8.00;95.20;;;;;;5089472;28;20016;-76
2021/05/07 05:36:15;;;;;;;1.73;1.20;;;7.90;94.90;;;;;;5089986;28;20398;-76
2021/05/07 05:38:41;;;;;;;2.67;1.50;;;8.00;95.00;;;;;;5089110;28;20108;-76
2021/05/07 05:41:06;;;;;;;4.53;1.67;;;8.10;94.20;;;;;;5088918;28;20470;-76
2021/05/07 05:43:32;;;;;;;2.60;1.50;;;8.10;94.90;;;;;;5089025;28;20028;-76
2021/05/07 05:45:57;;;;;;;6.15;1.20;;;8.10;94.90;;;;;;5089193;28;20028;-76
2021/05/07 05:48:23;;;;;;;2.72;1.40;;;8.10;94.60;;;;;;5089002;28;20240;-76
2021/05/07 05:50:51;;;;;;;1.83;1.30;;;8.10;94.80;;;;;;5089800;28;20501;-76
2021/05/07 05:53:18;;;;;;;5.43;1.63;;;8.10;95.70;;;;;;5088807;28;20494;-76
2021/05/07 05:55:43;;;;;;;6.15;1.92;;;8.10;96.20;;;;;;5089378;28;20471;-76
2021/05/07 05:58:09;;;;;;;6.68;1.30;;;8.10;96.40;;;;;;5088627;28;20016;-77
2021/05/07 06:00:36;;;;;;;4.60;1.70;;;8.20;96.10;;;;;;5087977;28;20538;-76
2021/05/07 06:03:02;;;;;;;5.70;1.23;;;8.30;96.70;;;;;;5088773;28;20034;-76
2021/05/07 06:05:28;;;;;;;8.95;1.20;;;8.30;96.00;;;;;;5088142;28;20020;-77
2021/05/07 06:07:53;;;;;;;6.75;1.23;;;8.30;96.90;;;;;;5089093;28;20050;-76
2021/05/07 06:10:20;;;;;;;1.40;1.10;;;8.30;98.00;;;;;;5089122;28;20024;-76
2021/05/07 06:12:47;;;;;;;2.10;1.10;;;8.30;98.80;;;;;;5087391;28;20027;-76
2021/05/07 06:15:13;;;;;;;1.30;1.17;;;8.30;98.30;;;;;;5088872;28;20027;-76
2021/05/07 06:17:39;;;;;;;1.92;1.15;;;8.30;98.30;;;;;;5087279;28;20035;-76
2021/05/07 06:20:07;;;;;;;1.35;1.05;;;8.40;98.30;;;;;;5088529;28;20051;-76
2021/05/07 06:22:33;;;;;;;1.38;0.85;;;8.40;98.40;;;;;;5087056;28;20026;-76
2021/05/07 06:25:00;;;;;;;2.70;1.30;;;8.40;98.30;;;;;;5088395;28;20028;-76
2021/05/07 06:27:25;;;;;;;2.55;1.25;;;8.50;99.50;;;;;;5087659;28;20023;-76
2021/05/07 06:29:51;;;;;;;3.60;1.13;;;8.60;99.80;;;;;;5088024;28;20373;-76
2021/05/07 06:32:17;;;;;;;2.80;1.45;;;8.60;99.90;;;;;;5085707;28;20028;-76
2021/05/07 06:34:42;;;;;;;2.58;1.33;;;8.60;99.50;;;;;;5081509;28;20360;-77
2021/05/07 06:37:08;;;;;;;1.58;1.10;;;8.50;99.60;;;;;;5088250;28;20044;-76
2021/05/07 06:39:33;;;;;;;3.55;1.42;;;8.40;99.90;;;;;;5087234;28;20027;-78
2021/05/07 06:42:00;;;;;;;1.02;0.93;;;8.30;99.90;;;;;;5088645;28;20028;-75
2021/05/07 06:44:26;;;;;;;4.28;1.15;;;8.30;99.90;;;;;;5083730;28;20351;-76
2021/05/07 06:46:54;;;;;;;1.33;1.20;;;8.30;99.90;;;;;;5088103;28;20028;-76
2021/05/07 06:49:24;;;;;;;3.65;1.48;;;8.30;99.90;;;;;;5086105;28;20057;-77
2021/05/07 06:51:50;;;;;;;1.95;1.10;;;8.30;99.90;;;;;;5081592;28;20505;-76
2021/05/07 06:54:16;;;;;;;4.10;1.05;;;8.40;99.90;;;;;;5083035;28;20028;-75
2021/05/07 06:56:41;;;;;;;3.03;1.20;;;8.40;99.90;;;;;;5087642;28;20035;-76
2021/05/07 06:59:07;;;;;;;2.50;1.05;;;8.50;99.90;;;;;;5085841;28;20154;-76
2021/05/07 07:01:34;;;;;;;1.98;1.30;;;8.50;99.90;;;;;;5085788;28;20471;-77
2021/05/07 07:03:59;;;;;;;8.27;1.45;;;8.40;99.90;;;;;;5087390;28;20140;-78
2021/05/07 07:06:24;;;;;;;1.00;0.80;;;8.40;99.90;;;;;;5087917;28;20090;-83
2021/05/07 07:08:51;;;;;;;3.13;1.40;;;8.40;99.90;;;;;;5087775;28;20028;-81
2021/05/07 07:11:17;;;;;;;3.15;1.63;;;8.30;99.90;;;;;;5087920;28;20024;-79
2021/05/07 07:13:42;;;;;;;3.03;1.65;;;8.20;99.90;;;;;;5087282;28;20161;-79
2021/05/07 07:16:09;;;;;;;4.18;1.10;;;8.20;99.90;;;;;;5087899;28;20024;-80
2021/05/07 07:18:34;;;;;;;2.10;1.00;;;8.20;99.90;;;;;;5087442;28;20113;-80
2021/05/07 07:21:00;;;;;;;2.75;0.90;;;8.10;99.90;;;;;;5087893;28;20494;-78
2021/05/07 07:23:25;;;;;;;2.25;1.02;;;8.00;99.90;;;;;;5087645;28;20032;-81
2021/05/07 07:25:51;;;;;;;3.58;1.27;;;8.00;99.90;;;;;;5087423;28;20099;-78
2021/05/07 07:28:18;;;;;;;2.17;1.15;;;7.90;99.90;;;;;;5083180;28;20051;-79
2021/05/07 07:30:44;;;;;;;5.50;1.58;;;7.90;99.90;;;;;;5074464;28;20036;-79
2021/05/07 07:33:12;;;;;;;2.97;1.35;;;7.90;99.90;;;;;;5086957;28;20250;-79
2021/05/07 07:35:37;;;;;;;2.83;1.33;;;7.80;99.90;;;;;;5086892;28;20028;-79
2021/05/07 07:38:03;;;;;;;2.25;1.25;;;7.90;99.90;;;;;;5082017;28;20027;-78
2021/05/07 07:40:29;;;;;;;3.42;2.35;;;7.90;99.90;;;;;;5087168;28;20107;-78
2021/05/07 07:42:54;;;;;;;6.03;1.80;;;7.90;99.90;;;;;;5086670;28;20158;-83
2021/05/07 07:45:20;;;;;;;2.13;1.30;;;7.80;99.90;;;;;;5086794;28;20089;-81
2021/05/07 07:47:46;;;;;;;2.80;1.45;;;7.80;99.90;;;;;;5087826;28;20016;-83
2021/05/07 07:50:11;;;;;;;1.88;1.23;;;7.80;99.90;;;;;;5087403;28;20762;-84
2021/05/07 07:52:38;;;;;;;4.68;1.80;;;7.80;99.90;;;;;;5087191;28;20132;-83
2021/05/07 07:55:05;;;;;;;3.35;1.33;;;7.70;99.90;;;;;;5088041;28;20042;-78
2021/05/07 07:57:30;;;;;;;1.27;1.08;;;7.70;99.90;;;;;;5087162;28;20508;-78
2021/05/07 07:59:56;;;;;;;3.63;1.48;;;7.70;99.90;;;;;;5086962;28;20103;-79
2021/05/07 08:02:22;;;;;;;1.77;1.10;;;7.50;99.90;;;;;;5090055;28;20431;-78
2021/05/07 08:04:48;;;;;;;3.17;1.45;;;7.50;99.90;;;;;;5091733;28;20062;-78
2021/05/07 08:07:13;;;;;;;11.55;6.97;;;7.40;99.90;;;;;;5088895;28;20482;-78
2021/05/07 08:09:39;;;;;;;6.18;3.85;;;7.40;99.90;;;;;;5090374;28;20099;-79
2021/05/07 08:12:05;;;;;;;15.48;7.55;;;7.30;99.90;;;;;;5090879;28;20483;-76
2021/05/07 08:14:31;;;;;;;13.13;4.95;;;7.30;99.90;;;;;;5091058;28;20031;-78
2021/05/07 08:16:57;;;;;;;21.80;8.90;;;7.30;99.90;;;;;;5090587;28;20016;-80
2021/05/07 08:19:22;;;;;;;10.77;4.18;;;7.20;99.90;;;;;;5090688;28;20028;-79
2021/05/07 08:21:48;;;;;;;5.57;1.60;;;7.10;99.90;;;;;;5087832;28;20035;-78
2021/05/07 08:24:13;;;;;;;2.17;1.08;;;7.00;99.90;;;;;;5089736;28;20063;-79
2021/05/07 08:26:39;;;;;;;1.60;1.13;;;7.00;99.90;;;;;;5088604;28;20120;-77
2021/05/07 08:29:10;;;;;;;1.58;0.98;;;7.00;99.90;;;;;;5086224;28;20111;-79
2021/05/07 08:31:35;;;;;;;5.38;1.35;;;6.90;99.90;;;;;;5090720;28;20102;-77
2021/05/07 08:34:01;;;;;;;2.47;0.77;;;6.90;99.90;;;;;;5090511;28;20023;-78
2021/05/07 08:36:26;;;;;;;2.35;0.82;;;6.90;99.90;;;;;;5089527;28;20486;-78
2021/05/07 08:38:52;;;;;;;3.53;1.13;;;6.90;99.90;;;;;;5089537;28;20027;-79
2021/05/07 08:41:18;;;;;;;1.60;1.20;;;6.80;99.90;;;;;;5089594;28;20055;-79
2021/05/07 08:43:44;;;;;;;3.72;1.20;;;6.70;99.90;;;;;;5089862;28;20043;-77
2021/05/07 08:46:10;;;;;;;1.48;0.90;;;6.50;99.90;;;;;;5090295;28;20244;-80
2021/05/07 08:48:38;;;;;;;4.75;0.95;;;6.40;99.90;;;;;;5090744;28;20032;-78
2021/05/07 08:51:05;;;;;;;2.05;1.20;;;6.40;99.90;;;;;;5090261;28;20506;-79
2021/05/07 08:53:31;;;;;;;13.30;5.82;;;6.30;99.90;;;;;;5090869;28;20044;-77
2021/05/07 08:56:00;;;;;;;12.75;6.50;;;6.30;99.90;;;;;;5090329;28;20027;-79
2021/05/07 08:58:26;;;;;;;8.88;3.33;;;6.30;99.90;;;;;;5089871;28;20058;-77
2021/05/07 09:00:52;;;;;;;4.38;1.77;;;6.20;99.90;;;;;;5088603;28;20563;-76
2021/05/07 09:03:19;;;;;;;5.90;1.75;;;6.30;99.90;;;;;;5079880;28;20371;-78
2021/05/07 09:05:44;;;;;;;5.38;2.15;;;6.40;99.90;;;;;;5089789;28;20032;-79
2021/05/07 09:08:10;;;;;;;9.00;3.67;;;6.40;99.90;;;;;;5089556;28;20406;-77
2021/05/07 09:10:43;;;;;;;5.55;2.10;;;6.30;99.90;;;;;;5089914;28;20038;-81
2021/05/07 09:13:11;;;;;;;8.73;4.30;;;6.20;99.90;;;;;;5089467;28;20024;-81
2021/05/07 09:15:45;;;;;;;6.03;2.90;;;6.10;99.90;;;;;;5089580;28;20024;-78
2021/05/07 09:18:13;;;;;;;4.35;1.92;;;6.00;99.90;;;;;;5089834;28;20042;-79
2021/05/07 09:20:42;;;;;;;3.00;1.70;;;6.00;99.90;;;;;;5089631;28;20024;-76
2021/05/07 09:23:12;;;;;;;2.83;1.10;;;6.00;99.90;;;;;;5089639;28;20032;-79
2021/05/07 09:25:58;;;;;;;1.13;0.90;;;5.90;99.90;;;;;;5089183;28;20470;-78
2021/05/07 09:28:24;;;;;;;0.98;0.80;;;6.00;99.90;;;;;;5089665;28;20036;-79
2021/05/07 09:30:49;;;;;;;6.20;1.10;;;6.10;99.90;;;;;;5090124;28;20031;-78
2021/05/07 09:33:16;;;;;;;1.35;1.00;;;6.20;99.90;;;;;;5089630;28;20034;-78
2021/05/07 09:35:43;;;;;;;1.30;0.90;;;6.30;99.90;;;;;;5088636;28;20067;-79
2021/05/07 09:38:15;;;;;;;1.73;0.95;;;6.30;99.90;;;;;;5088211;28;20027;-79
2021/05/07 09:40:42;;;;;;;0.50;0.50;;;6.30;99.90;;;;;;5086070;28;20084;-78
2021/05/07 09:43:12;;;;;;;2.15;0.90;;;6.30;99.90;;;;;;5088104;28;20047;-80
2021/05/07 09:45:40;;;;;;;2.50;1.10;;;6.30;99.90;;;;;;5089436;28;20044;-80
2021/05/07 09:48:19;;;;;;;1.15;0.90;;;6.30;99.90;;;;;;5085849;28;20036;-78
2021/05/07 09:50:47;;;;;;;1.45;0.73;;;6.40;99.90;;;;;;5081379;28;20048;-79
2021/05/07 09:53:20;;;;;;;1.08;0.57;;;6.40;99.90;;;;;;5088342;28;20028;-77
2021/05/07 09:55:56;;;;;;;1.25;0.77;;;6.60;99.90;;;;;;5089390;28;20027;-78
2021/05/07 09:58:22;;;;;;;0.63;0.60;;;6.70;99.90;;;;;;5085584;28;20084;-78
2021/05/07 10:00:47;;;;;;;0.60;0.60;;;6.80;99.90;;;;;;5089436;28;20482;-77
2021/05/07 10:03:13;;;;;;;0.75;0.40;;;6.90;99.90;;;;;;5087946;28;20031;-77
2021/05/07 10:05:39;;;;;;;1.92;0.60;;;7.10;99.90;;;;;;5088856;28;20360;-77
2021/05/07 10:08:05;;;;;;;0.47;0.40;;;7.00;99.90;;;;;;5077969;28;20024;-77
2021/05/07 10:10:41;;;;;;;0.60;0.50;;;7.10;99.90;;;;;;5088544;28;20101;-78
2021/05/07 10:13:15;;;;;;;0.40;0.40;;;7.10;99.90;;;;;;5088703;28;20403;-78
2021/05/07 10:15:43;;;;;;;1.58;0.25;;;7.00;99.90;;;;;;5084390;28;20125;-79
2021/05/07 10:18:11;;;;;;;0.60;0.60;;;7.00;99.90;;;;;;5088456;28;20546;-79
2021/05/07 10:20:41;;;;;;;1.52;0.40;;;7.00;99.90;;;;;;5088446;28;20032;-78
2021/05/07 10:23:16;;;;;;;1.02;0.50;;;6.90;99.90;;;;;;5086890;28;20453;-79
2021/05/07 10:26:02;;;;;;;0.40;0.40;;;7.00;99.90;;;;;;5086925;28;20031;-79
2021/05/07 10:28:31;;;;;;;0.47;0.47;;;7.20;99.90;;;;;;5082038;28;20051;-78
2021/05/07 10:31:07;;;;;;;0.65;0.60;;;7.40;99.90;;;;;;5082758;28;20021;-79
2021/05/07 10:33:33;;;;;;;0.80;0.70;;;7.80;99.90;;;;;;5082438;28;20047;-79
2021/05/07 10:35:59;;;;;;;1.27;0.70;;;8.10;99.90;;;;;;5087801;28;20028;-76
2021/05/07 10:38:26;;;;;;;0.63;0.50;;;8.40;99.90;;;;;;5086417;28;20028;-75
2021/05/07 10:41:08;;;;;;;1.63;0.90;;;8.90;99.90;;;;;;5086309;28;20423;-75
2021/05/07 10:43:41;;;;;;;0.55;0.55;;;9.40;99.90;;;;;;5087780;28;20034;-75
2021/05/07 10:46:07;;;;;;;0.77;0.70;;;9.60;99.90;;;;;;5087433;28;20024;-76
2021/05/07 10:48:33;;;;;;;0.88;0.82;;;9.90;99.90;;;;;;5087886;28;20028;-74
2021/05/07 10:51:03;;;;;;;0.60;0.60;;;10.10;99.90;;;;;;5087358;28;20040;-76
2021/05/07 10:53:34;;;;;;;1.15;0.90;;;10.10;99.90;;;;;;5087903;28;20044;-77
2021/05/07 10:56:00;;;;;;;1.08;0.85;;;10.20;99.90;;;;;;5088451;28;20031;-77
2021/05/07 10:58:34;;;;;;;5.47;1.20;;;10.10;99.90;;;;;;5087706;28;20031;-77
2021/05/07 11:01:01;;;;;;;2.95;1.38;;;10.00;99.90;;;;;;5085054;28;20461;-77
2021/05/07 11:03:27;;;;;;;1.13;0.80;;;9.90;99.90;;;;;;5087574;28;20072;-77
2021/05/07 11:05:52;;;;;;;1.35;1.00;;;9.90;99.90;;;;;;5086363;28;20028;-76
2021/05/07 11:08:20;;;;;;;0.63;0.60;;;10.10;99.90;;;;;;5088157;28;20450;-76
2021/05/07 11:10:48;;;;;;;1.35;0.65;;;10.50;99.90;;;;;;5087709;28;20123;-76
2021/05/07 11:13:13;;;;;;;0.65;0.50;;;10.80;99.90;;;;;;5087638;28;20024;-77
2021/05/07 11:15:39;;;;;;;1.33;0.80;;;11.20;99.70;;;;;;5087707;28;20027;-79
2021/05/07 11:18:07;;;;;;;1.33;0.60;;;11.00;97.60;;;;;;5088236;28;20113;-79
2021/05/07 11:20:35;;;;;;;1.30;0.82;;;10.60;99.20;;;;;;5077589;28;20016;-78
2021/05/07 11:23:02;;;;;;;2.53;1.10;;;10.40;99.70;;;;;;5079909;28;20027;-79
2021/05/07 11:25:30;;;;;;;1.60;1.27;;;10.40;99.90;;;;;;5085967;28;20031;-76
2021/05/07 11:27:58;;;;;;;1.38;1.20;;;10.50;99.90;;;;;;5087799;28;20514;-77
2021/05/07 11:30:24;;;;;;;2.13;0.85;;;11.10;97.20;;;;;;5087308;28;20036;-78
2021/05/07 11:32:50;;;;;;;5.35;1.25;;;11.60;98.30;;;;;;5080318;28;20505;-79
2021/05/07 11:35:15;;;;;;;1.17;0.82;;;11.90;96.20;;;;;;5085130;28;20039;-79
2021/05/07 11:37:44;;;;;;;1.70;1.13;;;12.40;93.60;;;;;;5091342;28;20233;-79
2021/05/07 11:40:16;;;;;;;0.80;0.75;;;12.90;91.60;;;;;;5089359;28;20085;-79
2021/05/07 11:42:43;;;;;;;0.80;0.80;;;13.70;89.90;;;;;;5089890;28;20039;-84
2021/05/07 11:45:16;;;;;;;3.55;1.23;;;14.40;81.40;;;;;;5091560;28;20020;-85
2021/05/07 11:47:42;;;;;;;0.70;0.68;;;14.90;76.70;;;;;;5091826;28;20032;-81
2021/05/07 11:50:09;;;;;;;3.80;0.77;;;15.00;70.80;;;;;;5091994;28;20039;-78
2021/05/07 11:52:36;;;;;;;1.58;1.20;;;14.40;68.10;;;;;;5084554;28;20036;-77
2021/05/07 11:55:06;;;;;;;2.22;1.02;;;14.00;73.10;;;;;;5091866;28;20127;-76
2021/05/07 11:57:33;;;;;;;3.50;0.80;;;13.90;76.60;;;;;;5082371;28;20024;-76
2021/05/07 11:59:59;;;;;;;4.03;0.98;;;14.90;75.40;;;;;;5091158;28;20039;-76
2021/05/07 12:02:30;;;;;;;3.70;1.00;;;14.90;71.80;;;;;;5090130;28;20016;-77
2021/05/07 12:04:56;;;;;;;2.30;0.77;;;14.50;70.80;;;;;;5090177;28;20400;-77
2021/05/07 12:07:29;;;;;;;2.00;0.80;;;14.10;71.00;;;;;;5090583;28;20798;-77
2021/05/07 12:09:56;;;;;;;2.10;0.80;;;14.30;73.60;;;;;;5081104;28;20775;-77
2021/05/07 12:12:22;;;;;;;1.48;0.82;;;15.70;68.00;;;;;;5091018;28;20040;-77
2021/05/07 12:14:49;;;;;;;3.42;1.30;;;15.90;63.40;;;;;;5091385;28;20031;-76
2021/05/07 12:17:21;;;;;;;1.35;0.98;;;15.10;66.40;;;;;;5091290;28;20025;-77
2021/05/07 12:19:57;;;;;;;1.65;1.08;;;14.00;69.40;;;;;;5090863;28;20020;-77
2021/05/07 12:22:23;;;;;;;3.15;0.85;;;12.60;76.00;;;;;;5091026;28;20034;-77
2021/05/07 12:24:49;;;;;;;2.53;1.30;;;11.70;84.20;;;;;;5090983;28;20047;-81
2021/05/07 12:27:28;;;;;;;1.77;0.90;;;11.40;92.60;;;;;;5090793;28;20533;-79
2021/05/07 12:29:54;;;;;;;3.63;1.20;;;11.20;93.20;;;;;;5083620;28;20032;-79
2021/05/07 12:32:23;;;;;;;3.25;0.95;;;11.90;93.70;;;;;;5089539;28;20107;-76
2021/05/07 12:35:01;;;;;;;1.42;0.70;;;13.00;91.40;;;;;;5089142;28;20020;-79
2021/05/07 12:37:37;;;;;;;1.30;0.68;;;13.70;81.50;;;;;;5091038;28;20020;-87
2021/05/07 12:40:04;;;;;;;1.02;0.60;;;14.40;77.60;;;;;;5088980;28;20115;-81
2021/05/07 12:42:30;;;;;;;0.50;0.50;;;16.40;77.10;;;;;;5090605;28;20534;-78
2021/05/07 12:44:55;;;;;;;0.77;0.60;;;17.80;64.80;;;;;;5087002;28;20039;-78
2021/05/07 12:47:20;;;;;;;0.60;0.57;;;19.20;59.40;;;;;;5090384;28;20027;-78
2021/05/07 12:49:46;;;;;;;0.68;0.55;;;20.10;55.60;;;;;;5082881;28;20068;-75
2021/05/07 12:52:11;;;;;;;0.57;0.50;;;20.10;53.50;;;;;;5087432;28;20036;-81
2021/05/07 12:54:37;;;;;;;3.20;0.80;;;19.40;54.30;;;;;;5090311;28;20077;-74
2021/05/07 12:57:03;;;;;;;0.50;0.40;;;18.40;54.60;;;;;;5087109;28;20489;-75